Terminal Aerodrome Forecast
Issued by NWS Sioux Falls, SD

Home | Current Version | Previous Version | Graphics & Text | Print | Product List | Glossary Off
Versions: 1 2 3 4 5 6 7 8 9 10 11 12 13 14 15 16 17 18 19 20 21 22 23 24 25 26 27 28

000
FTUS43 KFSD 130520
TAFSUX
TAF
KSUX 130520Z 1306/1406 11004KT P6SM FEW250
     FM130800 25008KT P6SM FEW250 WS010/29045KT
     FM131000 31016G25KT P6SM SCT200 WS010/31050KT
     FM131300 32021G33KT P6SM SCT250
     FM131600 32025G35KT P6SM BKN150
     FM131900 33027G39KT P6SM BKN035
     FM140300 33012G20KT P6SM SCT040=

USA.gov is the U.S. government's official web portal to all federal, state and local government web resources and services.